Russell, Pennsylvania
Current Conditions -  °F | °C
As of 4:55 AM on Saturday 25 Oct 2014 (Local Time) from KJHW Reporting Station
Overcast Overcast  
Wind Chill: 44°   Ceiling: 3200
Heat Index: 46°   Visibility: 10mi
Dew Point: 43°   Wind: 5mph
Humidity: 87%   Direction: 210°SSW
Pressure: 29.9"   Gusts: NA
Location:  41.94°N, 79.13°W
Report Text: KJHW 250855Z AUTO 21004KT 10SM OVC032 08/06 A2990 RMK AO1 57017
Loading
Personal Weather Stations






























Interactive Weather Map
Tropical Storm Tracking
New forecast layout! Learn more

10-Day Weather Forecast

Advertisements
Track Severe Weather on mobile